TimeMST,TemperatureF,Dew PointF,Humidity,Sea Level PressureIn,VisibilityMPH,Wind Direction,Wind SpeedMPH,Gust SpeedMPH,PrecipitationIn,Events,Conditions,WindDirDegrees,DateUTC
12:04 AM,5.0,1.4,85,30.33,10.0,North,8.1,-,N/A,,Scattered Clouds,350,2013-12-29 07:04:00
12:25 AM,5.0,1.4,85,30.32,10.0,North,8.1,-,N/A,,Mostly Cloudy,360,2013-12-29 07:25:00
12:30 AM,5.0,1.4,85,30.33,10.0,Variable,6.9,-,N/A,,Scattered Clouds,0,2013-12-29 07:30:00
1:58 AM,5.0,-0.0,80,30.53,10.0,North,6.9,-,N/A,,Scattered Clouds,10,2013-12-29 08:58:00
2:58 AM,4.1,-0.4,82,30.54,10.0,ENE,3.5,-,N/A,,Scattered Clouds,60,2013-12-29 09:58:00
3:58 AM,3.7,-0.6,82,30.50,10.0,SSE,3.5,-,N/A,,Mostly Cloudy,160,2013-12-29 10:58:00
4:58 AM,4.8,0.5,82,30.49,10.0,SE,4.6,-,N/A,,Overcast,140,2013-12-29 11:58:00
5:58 AM,5.5,1.4,83,30.49,10.0,ENE,2.3,-,N/A,,Overcast,70,2013-12-29 12:58:00
6:58 AM,6.4,2.3,83,30.48,10.0,SE,5.8,-,N/A,,Overcast,140,2013-12-29 13:58:00
7:58 AM,6.3,2.1,83,30.46,10.0,South,6.9,-,N/A,,Mostly Cloudy,170,2013-12-29 14:58:00
8:58 AM,8.6,4.3,83,30.43,10.0,South,9.2,-,N/A,,Overcast,180,2013-12-29 15:58:00
9:58 AM,10.4,6.1,83,30.42,10.0,South,8.1,-,N/A,,Overcast,170,2013-12-29 16:58:00
10:58 AM,12.9,7.5,79,30.40,10.0,South,9.2,-,N/A,,Overcast,170,2013-12-29 17:58:00
11:58 AM,15.4,6.8,69,30.35,10.0,South,15.0,-,N/A,,Overcast,170,2013-12-29 18:58:00
12:58 PM,18.1,8.2,65,30.27,10.0,South,12.7,-,N/A,,Partly Cloudy,170,2013-12-29 19:58:00
1:58 PM,19.8,8.1,61,30.22,10.0,South,16.1,-,N/A,,Scattered Clouds,180,2013-12-29 20:58:00
2:58 PM,20.3,8.8,61,30.19,10.0,South,13.8,-,N/A,,Overcast,180,2013-12-29 21:58:00
3:58 PM,19.9,10.0,65,30.14,10.0,South,11.5,-,N/A,,Scattered Clouds,190,2013-12-29 22:58:00
4:58 PM,19.9,10.8,68,30.10,10.0,South,9.2,-,N/A,,Mostly Cloudy,180,2013-12-29 23:58:00
5:58 PM,20.7,11.5,68,30.07,10.0,SSE,4.6,-,N/A,,Overcast,160,2013-12-30 00:58:00
6:58 PM,20.8,12.4,70,30.07,10.0,South,4.6,-,N/A,,Overcast,190,2013-12-30 01:58:00
7:58 PM,21.4,13.1,70,30.06,10.0,West,3.5,-,N/A,,Overcast,280,2013-12-30 02:58:00
8:53 PM,23.0,15.8,74,29.87,10.0,NW,2.3,-,N/A,Snow,Light Snow,320,2013-12-30 03:53:00
8:58 PM,22.5,15.4,74,30.04,9.0,Calm,Calm,-,0.00,Snow,Light Snow,0,2013-12-30 03:58:00
9:42 PM,26.6,23.0,86,29.86,10.0,North,6.9,-,N/A,,Overcast,10,2013-12-30 04:42:00
9:58 PM,26.8,22.3,83,30.02,10.0,North,5.8,-,0.00,,Overcast,10,2013-12-30 04:58:00
10:58 PM,22.6,19.0,86,30.01,10.0,SSW,2.3,-,N/A,,Partly Cloudy,210,2013-12-30 05:58:00
11:42 PM,24.8,21.2,86,29.85,10.0,NNW,1.2,-,N/A,,Overcast,330,2013-12-30 06:42:00
11:53 PM,24.8,21.2,86,29.84,10.0,SSW,1.2,-,N/A,,Overcast,200,2013-12-30 06:53:00
11:58 PM,24.4,21.6,89,29.99,10.0,SSW,1.2,-,0.00,,Overcast,210,2013-12-30 06:58:00